»·PEaware :: UAL576 KSEA-KJAC

UAL576 :: KSEA-KJAC

FLIGHT INFORMATION

Flight Status: Arrived
Operator:
United Airlines
More flights by this operator :: More flights under this callsign
Pilot: Anonymous 8274 (8274)
Aircraft: BOEING 737-200
(B732)
More flights by this aircraft type
Origin: KSEA Seattle-Tacoma Intl
United States
Destination: KJAC Jackson Hole
United States
More flights between these airports :: More routes between these airports
Route: +SUMMA1 BKE DNJ J82 DBS V298 DNW
File this flight plan on PilotEdge
Remarks:
Altitude:
(Current/Filed)
31,000ft
Speed:
(Current/Filed)
440kts
Departed: 08-Nov-19 06:00 PM
Arrived: 08-Nov-19 07:30 PM
Distance/Time
Traveled:
538nm/1:30
Distance/Time
To Go:
Arrived

Flight Plot

Page will automatically refresh every two minutes.

Flight plan parsing failed; only flown route is shown


Map Options




Map Legend


Flown Route
Filed Route
Departure Airport
Arrival Airport
Navaid (VOR, NDB)
Fix

Horizontal Profiles

Position Reports

Time Latitude Longitude Heading Altitude Ground
Speed
08-Nov-19 17:12 47.440180 -122.299053 46 478ft 0kts
08-Nov-19 17:12 47.440180 -122.299053 46 478ft 0kts
08-Nov-19 17:13 47.440180 -122.299053 46 478ft 0kts
08-Nov-19 17:14 47.440180 -122.299053 46 478ft 0kts
08-Nov-19 17:15 47.440180 -122.299053 46 478ft 0kts
08-Nov-19 17:16 47.440180 -122.299053 46 478ft 0kts
08-Nov-19 17:17 47.440180 -122.299053 46 478ft 0kts
08-Nov-19 17:18 47.440180 -122.299053 46 478ft 0kts
08-Nov-19 17:19 47.440180 -122.299053 46 478ft 0kts
08-Nov-19 17:20 47.440180 -122.299053 46 478ft 0kts
08-Nov-19 17:21 47.440180 -122.299053 46 478ft 0kts
08-Nov-19 17:22 47.440180 -122.299053 46 478ft 0kts
08-Nov-19 17:23 47.440180 -122.299053 46 478ft 0kts
08-Nov-19 17:24 47.440180 -122.299053 46 478ft 0kts
08-Nov-19 17:25 47.440180 -122.299053 46 478ft 0kts
08-Nov-19 17:26 47.440180 -122.299053 46 478ft 0kts
08-Nov-19 17:27 47.440180 -122.299053 46 478ft 0kts
08-Nov-19 17:28 47.440180 -122.299053 46 478ft 0kts
08-Nov-19 17:29 47.440180 -122.299053 46 478ft 0kts
08-Nov-19 17:30 47.440180 -122.299053 46 478ft 0kts
08-Nov-19 17:31 47.440180 -122.299053 46 478ft 0kts
08-Nov-19 17:32 47.440180 -122.299053 46 478ft 0kts
08-Nov-19 17:33 47.440180 -122.299053 46 478ft 0kts
08-Nov-19 17:34 47.440180 -122.299053 46 478ft 0kts
08-Nov-19 17:35 47.440180 -122.299053 46 478ft 0kts
08-Nov-19 17:36 47.440180 -122.299053 46 478ft 0kts
08-Nov-19 17:37 47.440180 -122.299053 46 478ft 0kts
08-Nov-19 17:38 47.440180 -122.299053 46 478ft 0kts
08-Nov-19 17:39 47.440180 -122.299053 46 478ft 0kts
08-Nov-19 17:40 47.440180 -122.299053 46 478ft 0kts
08-Nov-19 17:41 47.440180 -122.299053 46 478ft 0kts
08-Nov-19 17:42 47.440180 -122.299053 46 478ft 0kts
08-Nov-19 17:43 47.440180 -122.299053 46 478ft 0kts
08-Nov-19 17:44 47.440180 -122.299053 46 478ft 0kts
08-Nov-19 17:45 47.440180 -122.299053 46 478ft 0kts
08-Nov-19 17:46 47.440180 -122.299053 46 478ft 0kts
08-Nov-19 17:47 47.440180 -122.299053 46 478ft 0kts
08-Nov-19 17:48 47.440180 -122.299053 46 478ft 0kts
08-Nov-19 17:49 47.440180 -122.299053 46 478ft 0kts
08-Nov-19 17:50 47.439858 -122.299553 46 478ft 2kts
08-Nov-19 17:51 47.439475 -122.299681 314 478ft 1kts
08-Nov-19 17:52 47.439448 -122.299643 318 478ft 0kts
08-Nov-19 17:53 47.439448 -122.299643 318 478ft 0kts
08-Nov-19 17:54 47.439448 -122.299643 318 478ft 0kts
08-Nov-19 17:55 47.439448 -122.299643 318 478ft 0kts
08-Nov-19 17:56 47.440496 -122.301936 255 478ft 13kts
08-Nov-19 17:57 47.441111 -122.306359 0 478ft 16kts
08-Nov-19 17:58 47.448125 -122.306299 0 478ft 33kts
08-Nov-19 17:59 47.459245 -122.306192 0 478ft 45kts
08-Nov-19 18:00 47.463610 -122.306395 311 478ft 0kts
08-Nov-19 18:01 47.463610 -122.306395 311 478ft 0kts
08-Nov-19 18:02 47.463739 -122.306895 269 478ft 6kts
08-Nov-19 18:03 47.463306 -122.307776 180 478ft 18kts
08-Nov-19 18:04 47.430716 -122.308456 183 1667ft 145kts
08-Nov-19 18:05 47.381968 -122.309316 176 3739ft 201kts
08-Nov-19 18:06 47.319455 -122.304216 183 6400ft 248kts
08-Nov-19 18:07 47.249140 -122.309292 179 9643ft 262kts
08-Nov-19 18:08 47.189310 -122.232779 136 11705ft 327kts
08-Nov-19 18:09 47.113337 -122.161227 166 14228ft 325kts
08-Nov-19 18:10 47.027231 -122.123171 174 16736ft 325kts
08-Nov-19 18:11 46.937689 -122.091730 175 18716ft 339kts
08-Nov-19 18:12 46.845859 -122.059688 175 20268ft 357kts
08-Nov-19 18:13 46.749398 -122.026227 175 21957ft 365kts
08-Nov-19 18:14 46.650391 -121.991490 175 23653ft 368kts
08-Nov-19 18:15 46.564579 -121.911262 120 25113ft 420kts
08-Nov-19 18:16 46.524651 -121.749661 111 26555ft 426kts
08-Nov-19 18:17 46.489096 -121.585868 111 27873ft 426kts
08-Nov-19 18:18 46.443249 -121.427934 118 28944ft 426kts
08-Nov-19 18:19 46.387784 -121.278313 125 29696ft 432kts
08-Nov-19 18:20 46.326879 -121.126769 124 30414ft 438kts
08-Nov-19 18:21 46.261804 -120.976695 127 30964ft 446kts
08-Nov-19 18:22 46.192675 -120.824945 127 31261ft 460kts
08-Nov-19 18:23 46.120291 -120.667291 127 31256ft 478kts
08-Nov-19 18:24 46.046771 -120.507663 127 31256ft 480kts
08-Nov-19 18:25 45.974191 -120.350106 127 31256ft 480kts
08-Nov-19 18:26 45.904089 -120.197510 127 31255ft 478kts
08-Nov-19 18:27 45.833503 -120.043333 127 31256ft 477kts
08-Nov-19 18:28 45.761067 -119.885011 127 31256ft 476kts
08-Nov-19 18:29 45.688385 -119.726590 127 31256ft 475kts
08-Nov-19 18:30 45.615916 -119.569245 127 31255ft 475kts
08-Nov-19 18:31 45.545772 -119.409667 124 31259ft 476kts
08-Nov-19 18:32 45.481066 -119.252413 122 31262ft 477kts
08-Nov-19 18:33 45.416714 -119.087389 122 31265ft 476kts
08-Nov-19 18:34 45.352531 -118.923307 122 31273ft 475kts
08-Nov-19 18:35 45.288048 -118.759427 121 31285ft 475kts
08-Nov-19 18:36 45.220165 -118.599380 126 31283ft 473kts
08-Nov-19 18:37 45.144378 -118.447151 128 31284ft 473kts
08-Nov-19 18:38 45.069934 -118.300503 129 31287ft 473kts
08-Nov-19 18:39 44.993530 -118.149731 129 31298ft 472kts
08-Nov-19 18:40 44.917074 -117.999174 128 31310ft 471kts
08-Nov-19 18:41 44.842297 -117.854520 128 31327ft 471kts
08-Nov-19 18:42 44.803846 -117.685692 81 31331ft 470kts
08-Nov-19 18:43 44.829907 -117.506248 73 31329ft 468kts
08-Nov-19 18:44 44.831582 -117.324179 90 31328ft 473kts
08-Nov-19 18:45 44.823003 -117.138998 94 31329ft 474kts
08-Nov-19 18:46 44.809783 -116.954524 94 31336ft 474kts
08-Nov-19 18:47 44.796335 -116.769971 94 31339ft 474kts
08-Nov-19 18:48 44.782693 -116.585603 94 31338ft 475kts
08-Nov-19 18:49 44.771748 -116.400021 91 31338ft 475kts
08-Nov-19 18:50 44.762242 -116.219687 92 31338ft 475kts
08-Nov-19 18:51 44.752454 -116.034025 92 31347ft 474kts
08-Nov-19 18:52 44.742270 -115.848949 92 31358ft 474kts
08-Nov-19 18:53 44.705454 -115.674565 121 31358ft 475kts
08-Nov-19 18:54 44.663231 -115.499742 101 31356ft 474kts
08-Nov-19 18:55 44.632046 -115.325773 103 31355ft 475kts
08-Nov-19 18:56 44.599010 -115.145436 102 31357ft 475kts
08-Nov-19 18:57 44.568055 -114.965553 101 31357ft 475kts
08-Nov-19 18:59 44.539267 -114.784772 100 31357ft 475kts
08-Nov-19 19:00 44.511474 -114.603748 99 31357ft 476kts
08-Nov-19 19:01 44.483232 -114.422216 99 31358ft 477kts
08-Nov-19 19:02 44.454942 -114.247079 100 31362ft 479kts
08-Nov-19 19:03 44.424098 -114.065314 101 31356ft 480kts
08-Nov-19 19:04 44.392042 -113.884526 101 31357ft 480kts
08-Nov-19 19:05 44.359357 -113.702840 101 31362ft 481kts
08-Nov-19 19:06 44.326368 -113.521544 101 31368ft 482kts
08-Nov-19 19:07 44.295192 -113.350352 101 31360ft 484kts
08-Nov-19 19:08 44.262490 -113.171168 101 31374ft 483kts
08-Nov-19 19:09 44.229010 -112.990093 101 31366ft 484kts
08-Nov-19 19:10 44.195143 -112.808089 101 31372ft 485kts
08-Nov-19 19:11 44.161155 -112.625732 101 31370ft 486kts
08-Nov-19 19:12 44.133782 -112.442303 99 31369ft 487kts
08-Nov-19 19:13 44.101808 -112.272379 102 31109ft 488kts
08-Nov-19 19:14 44.073789 -112.090295 97 28842ft 473kts
08-Nov-19 19:15 44.048715 -111.915224 97 27024ft 452kts
08-Nov-19 19:16 44.024751 -111.747044 96 25126ft 437kts
08-Nov-19 19:16 44.008260 -111.609689 95 23552ft 426kts
08-Nov-19 19:18 43.986802 -111.421905 95 21107ft 419kts
08-Nov-19 19:19 43.970185 -111.271017 95 19176ft 409kts
08-Nov-19 19:19 43.959226 -111.141744 90 17529ft 397kts
08-Nov-19 19:20 43.952516 -110.991166 90 15625ft 386kts
08-Nov-19 19:22 43.945972 -110.820885 94 13598ft 369kts
08-Nov-19 19:22 43.930957 -110.711407 99 13483ft 325kts
08-Nov-19 19:23 43.886986 -110.624565 149 12919ft 299kts
08-Nov-19 19:24 43.813264 -110.627612 207 11638ft 266kts
08-Nov-19 19:25 43.749868 -110.669895 201 10247ft 237kts
08-Nov-19 19:26 43.698727 -110.693388 200 8875ft 155kts
08-Nov-19 19:27 43.660693 -110.711840 198 7359ft 142kts
08-Nov-19 19:28 43.623309 -110.730021 198 6645ft 144kts
08-Nov-19 19:29 43.599546 -110.740670 112 6429ft 13kts
08-Nov-19 19:30 43.600647 -110.739386 20 6429ft 4kts
08-Nov-19 19:31 43.603215 -110.737773 97 6429ft 6kts

Navigation Log

Ident Type
Flight plan parsing failed, navigation log unavailable